Terminal Aerodrome Forecast
Issued by NWS Cleveland, OH

Home | Current Version | Previous Version | Graphics & Text | Print | Product List | Glossary On
Versions: 1 2 3 4 5 6 7 8 9 10 11 12 13 14 15 16 17 18 19 20 21 22 23 24 25 26
908
FTUS41 KCLE 052040 AAA
TAFCLE
TAF AMD
KCLE 052040Z 0521/0624 23008KT P6SM SCT040 BKN120
      TEMPO 0603/0607 BKN040=

USA.gov is the U.S. government's official web portal to all federal, state and local government web resources and services.